Time;durP1;ratioP1;P1;durP2;ratioP2;P2;SDS_P1;SDS_P2;PMS_P1;PMS_P2;Temp;Humidity;BMP_temperature;BMP_pressure;BME280_temperature;BME280_humidity;BME280_pressure;Samples;Min_cycle;Max_cycle;Signal;HPM_P1;HPM_P2
2023/11/10 00:02:19;;;;;;;39.37;21.33;;;;;;;5.87;67.82;101038.47;123855;1102;104314;-84
2023/11/10 00:04:50;;;;;;;41.23;21.03;;;;;;;5.87;68.03;101032.38;123812;1102;104360;-86
2023/11/10 00:07:22;;;;;;;37.43;20.07;;;;;;;5.87;68.07;101029.77;123898;1102;104233;-87
2023/11/10 00:09:53;;;;;;;42.83;21.10;;;;;;;5.84;67.99;101034.78;123758;1099;104274;-86
2023/11/10 00:12:26;;;;;;;39.33;21.10;;;;;;;5.83;68.02;101032.97;123864;1099;104248;-84
2023/11/10 00:14:58;;;;;;;38.17;19.27;;;;;;;5.81;68.45;101038.08;123845;1099;104313;-86
2023/11/10 00:17:29;;;;;;;43.27;21.57;;;;;;;5.81;68.08;101034.59;123860;1101;104312;-87
2023/11/10 00:20:00;;;;;;;40.47;20.20;;;;;;;5.79;68.46;101026.67;123936;1102;104357;-88
2023/11/10 00:22:32;;;;;;;36.87;19.30;;;;;;;5.80;68.66;101030.17;123876;1102;104233;-85
2023/11/10 00:25:05;;;;;;;35.35;18.70;;;;;;;5.79;68.53;101018.86;123879;1100;104300;-86
2023/11/10 00:27:37;;;;;;;35.80;19.23;;;;;;;5.80;68.45;101019.75;123904;1102;104443;-86
2023/11/10 00:30:10;;;;;;;37.03;19.07;;;;;;;5.80;68.72;101022.36;123968;1102;104405;-87
2023/11/10 00:32:42;;;;;;;39.33;20.00;;;;;;;5.79;68.68;101010.16;123912;1099;104261;-87
2023/11/10 00:35:14;;;;;;;35.53;18.07;;;;;;;5.75;68.83;101015.17;123931;1099;104431;-86
2023/11/10 00:37:45;;;;;;;34.27;17.40;;;;;;;5.76;68.69;101018.67;123819;1102;104353;-85
2023/11/10 00:40:17;;;;;;;34.65;17.35;;;;;;;5.74;69.01;101010.76;123794;1102;104639;-86
2023/11/10 00:42:49;;;;;;;34.40;17.40;;;;;;;5.75;69.11;101015.17;123754;1102;104294;-86
2023/11/10 00:45:20;;;;;;;33.30;17.53;;;;;;;5.78;68.99;101016.16;123841;1100;104780;-86
2023/11/10 00:47:52;;;;;;;32.30;17.00;;;;;;;5.76;68.97;101014.38;123934;1102;104229;-85
2023/11/10 00:50:23;;;;;;;33.23;16.37;;;;;;;5.76;69.15;101008.25;123811;1099;104356;-84
2023/11/10 00:52:55;;;;;;;35.47;17.83;;;;;;;5.72;69.23;101012.38;123883;1099;104348;-84
2023/11/10 00:55:26;;;;;;;32.33;17.20;;;;;;;5.71;69.33;101013.17;123861;1099;104258;-85
2023/11/10 00:57:58;;;;;;;30.87;16.33;;;;;;;5.72;69.39;101014.09;123881;1102;104622;-85
2023/11/10 01:00:30;;;;;;;31.87;16.73;;;;;;;5.70;69.24;101013.07;123982;1102;104356;-84
2023/11/10 01:03:03;;;;;;;32.70;17.20;;;;;;;5.69;69.23;101009.58;123917;1102;104251;-85
2023/11/10 01:05:35;;;;;;;33.80;16.82;;;;;;;5.69;69.17;101009.58;123867;1102;104364;-83
2023/11/10 01:08:07;;;;;;;33.83;17.50;;;;;;;5.70;69.12;101006.19;123988;1102;104325;-85
2023/11/10 01:10:38;;;;;;;33.60;16.93;;;;;;;5.70;69.44;101006.19;123839;1102;104309;-85
2023/11/10 01:13:14;;;;;;;32.75;17.70;;;;;;;5.67;69.39;101003.38;123993;1102;104274;-85
2023/11/10 01:15:45;;;;;;;33.97;17.70;;;;;;;5.67;69.33;101003.38;123927;1099;104688;-84
2023/11/10 01:18:18;;;;;;;33.70;17.70;;;;;;;5.68;69.26;100999.95;124026;1102;104265;-86
2023/11/10 01:20:50;;;;;;;32.87;16.90;;;;;;;5.68;69.43;101002.56;124120;1099;104422;-81
2023/11/10 01:23:22;;;;;;;33.03;16.67;;;;;;;5.66;69.54;101000.69;123899;1099;104297;-84
2023/11/10 01:25:53;;;;;;;36.13;17.37;;;;;;;5.62;69.81;100993.47;124141;1099;104280;-85
2023/11/10 01:28:25;;;;;;;31.35;16.35;;;;;;;5.61;69.69;101002.07;124570;1099;104260;-84
2023/11/10 01:30:57;;;;;;;31.73;15.83;;;;;;;5.63;69.51;100995.28;124100;1102;104465;-85
2023/11/10 01:33:29;;;;;;;32.97;16.53;;;;;;;5.61;69.60;100994.27;124009;1099;104428;-85
2023/11/10 01:36:01;;;;;;;32.83;17.13;;;;;;;5.58;69.71;100995.88;123917;1099;104229;-84
2023/11/10 01:38:32;;;;;;;36.50;17.83;;;;;;;5.55;69.71;100995.68;123860;1099;110814;-85
2023/11/10 01:41:04;;;;;;;35.10;17.63;;;;;;;5.52;70.05;100997.20;123935;1099;104297;-85
2023/11/10 01:43:36;;;;;;;35.45;16.90;;;;;;;5.51;69.86;100995.39;123912;1099;104287;-83
2023/11/10 01:46:27;;;;;;;33.83;17.27;;;;;;;5.51;70.03;100995.39;123866;1099;104278;-83
2023/11/10 01:48:58;;;;;;;33.20;16.73;;;;;;;5.51;69.90;100990.18;123820;1102;104351;-83
2023/11/10 01:51:30;;;;;;;32.63;16.73;;;;;;;5.51;70.13;100995.39;123879;1099;104246;-84
2023/11/10 01:54:05;;;;;;;33.73;17.43;;;;;;;5.54;69.86;101000.79;123941;1099;104278;-85
2023/11/10 01:56:37;;;;;;;32.13;15.87;;;;;;;5.52;70.06;100999.80;123942;1099;104245;-84
2023/11/10 01:59:14;;;;;;;33.63;16.60;;;;;;;5.52;69.87;100994.59;124115;1099;104402;-85
2023/11/10 02:01:46;;;;;;;32.47;16.07;;;;;;;5.52;70.08;100998.09;123953;1099;104296;-86
2023/11/10 02:04:18;;;;;;;33.73;16.73;;;;;;;5.51;70.31;100996.28;124414;1102;104284;-85
2023/11/10 02:06:51;;;;;;;31.83;15.93;;;;;;;5.53;70.07;100991.17;124041;1102;104334;-85
2023/11/10 02:09:23;;;;;;;31.60;16.03;;;;;;;5.54;70.47;100990.38;124043;1099;117799;-83
2023/11/10 02:11:54;;;;;;;31.07;15.90;;;;;;;5.54;70.38;100990.38;123875;1102;104354;-83
2023/11/10 02:14:26;;;;;;;32.67;15.90;;;;;;;5.52;70.43;100981.58;124000;1102;104283;-84
2023/11/10 02:16:58;;;;;;;29.10;15.33;;;;;;;5.53;70.16;100986.88;124019;1099;104194;-84
2023/11/10 02:19:29;;;;;;;28.10;14.75;;;;;;;5.49;70.17;100989.19;123914;1099;104306;-83
2023/11/10 02:22:01;;;;;;;31.17;16.33;;;;;;;5.40;70.44;100979.97;123927;1102;104220;-82
2023/11/10 02:24:35;;;;;;;30.03;15.00;;;;;;;5.37;70.46;100984.98;123823;1102;104339;-83
2023/11/10 02:27:07;;;;;;;29.48;15.43;;;;;;;5.37;70.64;100990.19;124042;1102;104255;-84
2023/11/10 02:29:42;;;;;;;30.70;14.73;;;;;;;5.37;70.76;100984.98;124228;1102;104249;-84
2023/11/10 02:32:13;;;;;;;28.67;13.97;;;;;;;5.36;70.62;100979.67;124313;1099;104245;-85
2023/11/10 02:34:45;;;;;;;27.20;13.50;;;;;;;5.35;70.51;100978.78;124193;1102;104421;-83
2023/11/10 02:37:16;;;;;;;27.93;14.80;;;;;;;5.35;70.99;100976.19;124134;1102;104335;-84
2023/11/10 02:39:48;;;;;;;30.13;13.83;;;;;;;5.36;71.12;100982.27;124367;1102;105452;-83
2023/11/10 02:42:19;;;;;;;26.67;13.20;;;;;;;5.34;70.84;100976.97;124507;1099;104162;-84
2023/11/10 02:44:51;;;;;;;26.53;12.93;;;;;;;5.35;71.00;100972.69;124636;1099;104300;-83
2023/11/10 02:47:22;;;;;;;27.27;12.40;;;;;;;5.36;71.27;100975.39;124364;1099;104293;-84
2023/11/10 02:49:54;;;;;;;25.97;12.40;;;;;;;5.38;71.28;100972.89;124119;1100;104188;-84
2023/11/10 02:52:25;;;;;;;27.03;12.87;;;;;;;5.40;71.35;100966.95;124695;1102;104303;-84
2023/11/10 02:54:57;;;;;;;26.47;12.23;;;;;;;5.40;71.14;100969.56;124140;1099;104325;-84
2023/11/10 02:57:28;;;;;;;25.57;12.60;;;;;;;5.43;71.05;100971.47;124063;1099;104303;-84
2023/11/10 03:00:00;;;;;;;27.20;12.37;;;;;;;5.43;71.13;100970.58;124046;1099;104300;-85
2023/11/10 03:02:32;;;;;;;26.20;12.70;;;;;;;5.43;71.61;100975.78;124132;1102;104307;-83
2023/11/10 03:05:03;;;;;;;25.90;11.50;;;;;;;5.44;71.21;100972.36;124267;1099;104300;-82
2023/11/10 03:07:36;;;;;;;23.40;11.37;;;;;;;5.46;71.45;100970.78;124532;1102;104187;-85
2023/11/10 03:10:11;;;;;;;24.90;11.73;;;;;;;5.47;71.42;100967.35;124388;1099;104258;-84
2023/11/10 03:12:43;;;;;;;22.47;11.30;;;;;;;5.48;71.25;100971.77;123952;1099;104169;-84
2023/11/10 03:15:15;;;;;;;23.03;11.57;;;;;;;5.49;71.46;100965.77;123811;1102;104341;-82
2023/11/10 03:17:50;;;;;;;24.97;10.80;;;;;;;5.50;71.39;100963.27;123894;1102;104261;-85
2023/11/10 03:20:23;;;;;;;24.45;11.50;;;;;;;5.50;71.88;100958.05;123965;1102;104415;-85
2023/11/10 03:22:54;;;;;;;24.37;11.67;;;;;;;5.50;71.77;100958.05;123974;1101;104197;-85
2023/11/10 03:25:26;;;;;;;23.90;11.63;;;;;;;5.52;71.56;100956.44;124006;1099;104295;-85
2023/11/10 03:27:58;;;;;;;21.77;10.40;;;;;;;5.52;71.90;100948.63;123927;1099;104303;-85
2023/11/10 03:30:29;;;;;;;22.17;10.70;;;;;;;5.55;72.10;100956.63;124733;1102;104162;-85
2023/11/10 03:33:00;;;;;;;26.50;11.43;;;;;;;5.58;72.04;100950.73;125809;1099;104198;-84
2023/11/10 03:35:32;;;;;;;22.90;10.37;;;;;;;5.61;72.05;100947.40;125846;1101;104230;-83
2023/11/10 03:38:03;;;;;;;22.87;10.83;;;;;;;5.65;72.20;100946.80;125495;1102;102115;-85
2023/11/10 03:40:36;;;;;;;22.97;10.47;;;;;;;5.69;72.44;100947.09;123961;1102;104368;-84
2023/11/10 03:43:07;;;;;;;23.87;10.20;;;;;;;5.71;72.35;100948.07;123940;1099;104198;-84
2023/11/10 03:45:39;;;;;;;23.47;9.97;;;;;;;5.74;72.42;100956.08;123932;1099;104640;-85
2023/11/10 03:48:10;;;;;;;24.60;10.10;;;;;;;5.78;72.30;100951.98;123868;1099;104293;-85
2023/11/10 03:50:43;;;;;;;21.77;9.33;;;;;;;5.76;72.25;100951.89;123955;1099;104281;-83
2023/11/10 03:53:14;;;;;;;22.63;9.93;;;;;;;5.79;72.54;100950.27;123929;1099;104588;-85
2023/11/10 03:55:46;;;;;;;21.47;10.20;;;;;;;5.80;72.58;100963.38;123977;1100;104184;-83
2023/11/10 03:58:18;;;;;;;22.57;10.27;;;;;;;5.79;72.66;100955.47;123928;1099;104343;-83
2023/11/10 04:00:50;;;;;;;24.40;10.53;;;;;;;5.81;72.55;100948.64;123874;1099;104319;-84
2023/11/10 04:03:21;;;;;;;21.65;10.15;;;;;;;5.81;72.51;100944.33;123889;1102;104178;-83
2023/11/10 04:05:53;;;;;;;26.47;10.53;;;;;;;5.82;72.78;100945.25;123945;1102;104358;-83
2023/11/10 04:08:24;;;;;;;21.37;9.73;;;;;;;5.85;72.75;100950.64;123840;1102;104328;-83
2023/11/10 04:10:56;;;;;;;22.23;10.37;;;;;;;5.84;72.74;100946.23;123840;1099;104271;-82
2023/11/10 04:13:27;;;;;;;24.25;11.20;;;;;;;5.83;72.59;100947.02;123829;1099;104232;-83
2023/11/10 04:15:59;;;;;;;20.03;8.93;;;;;;;5.86;72.83;100952.42;123826;1102;104251;-83
2023/11/10 04:18:30;;;;;;;20.33;9.87;;;;;;;5.87;73.15;100959.44;123918;1099;104425;-83
2023/11/10 04:21:02;;;;;;;20.87;9.67;;;;;;;5.87;73.11;100949.91;123953;1100;104318;-83
2023/11/10 04:23:33;;;;;;;21.53;9.80;;;;;;;5.87;72.95;100949.91;123854;1102;104283;-83
2023/11/10 04:26:05;;;;;;;22.20;10.20;;;;;;;5.88;73.14;100956.94;123848;1102;104249;-84
2023/11/10 04:28:40;;;;;;;21.60;9.90;;;;;;;5.89;73.23;100953.53;123904;1102;104299;-84
2023/11/10 04:31:13;;;;;;;21.93;10.10;;;;;;;5.88;73.24;100951.72;124033;1099;105640;-82
2023/11/10 04:33:45;;;;;;;20.57;10.00;;;;;;;5.89;73.40;100952.61;123945;1099;104361;-84
2023/11/10 04:36:18;;;;;;;20.97;9.87;;;;;;;5.91;73.41;100951.02;123883;1099;104325;-83
2023/11/10 04:38:49;;;;;;;22.63;9.10;;;;;;;5.92;73.54;100945.91;123980;1099;104309;-84
2023/11/10 04:41:24;;;;;;;19.93;9.30;;;;;;;5.94;73.34;100951.21;123928;1102;104354;-82
2023/11/10 04:43:55;;;;;;;18.97;8.43;;;;;;;5.94;73.49;100953.82;123932;1102;104375;-84
2023/11/10 04:46:27;;;;;;;19.03;9.03;;;;;;;5.95;73.69;100952.98;123938;1102;104316;-83
2023/11/10 04:48:58;;;;;;;18.87;9.00;;;;;;;5.94;73.35;100952.10;123898;1101;104277;-84
2023/11/10 04:51:31;;;;;;;20.73;9.43;;;;;;;5.97;73.57;100956.65;124036;1099;104172;-84
2023/11/10 04:54:03;;;;;;;19.37;9.20;;;;;;;5.99;73.71;100948.92;123990;1099;104363;-83
2023/11/10 04:56:43;;;;;;;19.23;8.67;;;;;;;6.00;73.64;100950.70;123978;1102;104296;-84
2023/11/10 04:59:15;;;;;;;21.53;8.67;;;;;;;6.02;73.71;100957.82;123981;1102;104364;-83
2023/11/10 05:01:48;;;;;;;19.10;8.93;;;;;;;6.04;73.79;100961.41;123939;1102;104248;-85
2023/11/10 05:04:19;;;;;;;21.77;8.63;;;;;;;6.06;73.75;100954.61;123936;1102;104337;-84
2023/11/10 05:06:51;;;;;;;20.30;8.93;;;;;;;6.08;73.99;100952.98;123925;1102;104374;-83
2023/11/10 05:09:22;;;;;;;19.87;9.13;;;;;;;6.10;73.95;100956.57;123852;1101;104335;-84
2023/11/10 05:11:54;;;;;;;18.60;7.70;;;;;;;6.15;73.91;100961.17;123765;1102;104364;-82
2023/11/10 05:14:28;;;;;;;19.67;8.37;;;;;;;6.18;74.14;100956.16;124005;1099;104303;-83
2023/11/10 05:17:00;;;;;;;19.13;8.53;;;;;;;6.22;74.32;100953.83;123813;1099;104274;-81
2023/11/10 05:19:32;;;;;;;20.77;8.53;;;;;;;6.26;74.23;100954.90;123868;1099;104380;-81
2023/11/10 05:22:04;;;;;;;18.70;8.20;;;;;;;6.30;74.18;100959.50;123919;1099;104341;-81
2023/11/10 05:24:36;;;;;;;18.13;8.00;;;;;;;6.37;74.67;100965.97;124001;1102;104207;-83
2023/11/10 05:27:07;;;;;;;18.63;8.23;;;;;;;6.42;74.31;100956.70;123936;1102;104236;-83
2023/11/10 05:29:39;;;;;;;18.30;7.53;;;;;;;6.48;74.78;100957.08;123927;1100;104232;-83
2023/11/10 05:32:12;;;;;;;18.17;8.40;;;;;;;6.53;74.69;100954.73;123822;1099;104354;-83
2023/11/10 05:34:44;;;;;;;19.73;8.37;;;;;;;6.58;74.59;100956.82;124221;1102;104303;-83
2023/11/10 05:37:17;;;;;;;23.65;9.50;;;;;;;6.63;74.81;100952.77;124081;1099;104223;-84
2023/11/10 05:39:50;;;;;;;16.87;7.83;;;;;;;6.68;74.81;100960.86;124223;1099;104357;-86
2023/11/10 05:42:22;;;;;;;21.23;8.33;;;;;;;6.72;74.50;100957.63;124390;1102;104277;-84
2023/11/10 05:44:54;;;;;;;17.47;8.13;;;;;;;6.78;74.31;100960.60;124460;1102;104285;-83
2023/11/10 05:47:25;;;;;;;16.77;8.07;;;;;;;6.83;74.43;100968.70;124104;1102;104374;-82
2023/11/10 05:49:57;;;;;;;19.50;7.50;;;;;;;6.90;74.63;100963.00;124289;1102;104185;-81
2023/11/10 05:52:31;;;;;;;16.53;8.07;;;;;;;6.95;74.52;100958.97;124426;1102;104175;-81
2023/11/10 05:55:03;;;;;;;21.47;8.20;;;;;;;7.05;75.24;100972.55;124394;1102;104191;-81
2023/11/10 05:57:36;;;;;;;16.60;7.57;;;;;;;7.11;74.94;100960.73;124449;1102;104294;-79
2023/11/10 06:00:09;;;;;;;16.80;8.10;;;;;;;7.18;74.80;100959.37;124438;1099;104325;-78
2023/11/10 06:02:46;;;;;;;17.67;7.57;;;;;;;7.28;75.17;100968.64;125904;1099;102422;-78
2023/11/10 06:05:22;;;;;;;16.25;7.75;;;;;;;7.37;75.03;100977.88;125394;1102;103973;-78
2023/11/10 06:07:54;;;;;;;17.20;7.70;;;;;;;7.46;74.81;100977.48;124417;1102;104277;-78
2023/11/10 06:10:29;;;;;;;14.77;7.03;;;;;;;7.58;74.70;100977.27;124227;1102;104278;-77
2023/11/10 06:13:00;;;;;;;17.20;7.33;;;;;;;7.66;74.75;100970.75;124514;1099;104175;-79
2023/11/10 06:15:32;;;;;;;16.47;7.07;;;;;;;7.75;74.96;100970.37;124706;1102;104175;-79
2023/11/10 06:18:04;;;;;;;17.07;7.03;;;;;;;7.84;74.62;100970.87;124645;1099;104243;-79
2023/11/10 06:20:38;;;;;;;18.80;7.57;;;;;;;7.91;75.08;100970.36;124571;1102;104291;-79
2023/11/10 06:23:12;;;;;;;16.10;7.50;;;;;;;8.02;74.59;100970.05;124799;1099;103576;-80
2023/11/10 06:25:44;;;;;;;14.87;7.20;;;;;;;8.12;75.17;100969.73;124507;1102;104249;-81
2023/11/10 06:28:16;;;;;;;19.37;8.20;;;;;;;8.20;74.82;100968.42;124529;1102;104248;-79
2023/11/10 06:30:47;;;;;;;16.37;7.67;;;;;;;8.32;74.39;100969.88;124460;1102;104224;-77
2023/11/10 06:33:19;;;;;;;16.12;8.10;;;;;;;8.42;75.16;100966.92;115786;1099;10001790;-78
2023/11/10 06:35:51;;;;;;;14.77;6.80;;;;;;;8.52;74.48;100974.44;124500;1099;104245;-80
2023/11/10 06:38:23;;;;;;;17.07;7.33;;;;;;;8.61;74.70;100974.92;124648;1099;104251;-78
2023/11/10 06:40:55;;;;;;;15.10;7.45;;;;;;;8.70;75.02;100966.66;124400;1099;104289;-78
2023/11/10 06:43:28;;;;;;;15.40;7.53;;;;;;;8.77;74.94;100967.85;124434;1099;104191;-78
2023/11/10 06:46:01;;;;;;;14.83;6.97;;;;;;;8.83;74.34;100965.54;124487;1102;104347;-80
2023/11/10 06:48:34;;;;;;;17.63;7.17;;;;;;;8.88;74.76;100963.16;124390;1102;104181;-80
2023/11/10 06:51:06;;;;;;;17.23;7.37;;;;;;;8.94;74.52;100960.84;124652;1102;104251;-79
2023/11/10 06:53:38;;;;;;;14.00;6.77;;;;;;;9.00;74.18;100958.53;124762;1102;103623;-83
2023/11/10 06:56:10;;;;;;;16.93;7.23;;;;;;;9.08;74.66;100953.67;124808;1099;102476;-77
2023/11/10 06:58:42;;;;;;;17.43;7.43;;;;;;;9.15;74.72;100948.81;124760;1099;102875;-79
2023/11/10 07:01:14;;;;;;;12.63;6.57;;;;;;;9.24;74.55;100950.99;124709;1102;104181;-80
2023/11/10 07:03:47;;;;;;;14.67;6.83;;;;;;;9.30;74.20;100948.67;124654;1102;104178;-80
2023/11/10 07:06:20;;;;;;;;;;;;;;;9.37;74.27;100948.96;124867;1102;104386;-80
2023/11/10 07:08:56;;;;;;;14.07;6.23;;;;;;;9.44;74.24;100936.23;124872;1101;104385;-81
2023/11/10 07:11:31;;;;;;;14.03;6.50;;;;;;;9.50;74.45;100943.46;124916;1102;103551;-78
2023/11/10 07:14:07;;;;;;;12.73;6.00;;;;;;;9.57;74.22;100948.17;124776;1099;104308;-81
2023/11/10 07:16:46;;;;;;;14.63;6.73;;;;;;;9.66;74.50;100937.20;124911;1102;104222;-85
2023/11/10 07:19:21;;;;;;;13.23;6.43;;;;;;;9.76;74.37;100939.44;124864;1102;104278;-81
2023/11/10 07:21:54;;;;;;;13.40;6.33;;;;;;;9.87;74.12;100939.93;125014;1099;102276;-81
2023/11/10 07:24:30;;;;;;;12.93;6.23;;;;;;;9.96;74.08;100935.11;124886;1099;102195;-78
2023/11/10 07:27:07;;;;;;;10.63;5.50;;;;;;;10.07;74.04;100946.97;124805;1102;104239;-80
2023/11/10 07:29:49;;;;;;;10.53;5.40;;;;;;;10.19;73.53;100935.22;124827;1102;104165;-80
2023/11/10 07:32:25;;;;;;;9.83;5.33;;;;;;;10.29;73.85;100937.42;124840;1102;104291;-79
2023/11/10 07:35:05;;;;;;;11.83;5.47;;;;;;;10.41;73.96;100932.75;124687;1102;104245;-78
2023/11/10 07:37:40;;;;;;;13.30;5.37;;;;;;;10.54;73.79;100922.78;126184;1098;102646;-82
2023/11/10 07:40:17;;;;;;;12.40;4.80;;;;;;;10.65;73.05;100923.23;126282;1099;102536;-80
2023/11/10 07:42:52;;;;;;;12.13;5.00;;;;;;;10.75;73.19;100923.69;126205;1099;103406;-84
2023/11/10 07:45:34;;;;;;;8.80;4.60;;;;;;;10.88;72.99;100909.33;126108;1102;101455;-80
2023/11/10 07:48:14;;;;;;;9.67;4.47;;;;;;;11.04;72.91;100918.72;126398;1100;102244;-80
2023/11/10 07:51:00;;;;;;;9.63;4.20;;;;;;;11.15;72.77;100911.28;126034;1100;101984;-81
2023/11/10 07:53:35;;;;;;;9.08;4.40;;;;;;;11.29;72.82;100907.45;124756;1102;104178;-83
2023/11/10 07:56:15;;;;;;;10.57;4.20;;;;;;;11.41;72.37;100911.42;124880;1102;104232;-80
2023/11/10 07:58:51;;;;;;;7.07;3.83;;;;;;;11.55;72.39;100906.70;125517;1101;102093;-83
2023/11/10 08:01:28;;;;;;;8.20;4.13;;;;;;;11.65;71.96;100907.08;124909;1102;103209;-83
2023/11/10 08:04:11;;;;;;;6.97;3.80;;;;;;;11.77;71.81;100906.66;126212;1098;103083;-81
2023/11/10 08:06:46;;;;;;;12.13;4.43;;;;;;;11.90;71.57;100893.96;126095;1102;107212;-80
2023/11/10 08:09:23;;;;;;;9.00;3.87;;;;;;;12.04;70.87;100898.93;126322;1100;102167;-81
2023/11/10 08:12:00;;;;;;;6.47;3.53;;;;;;;12.20;70.51;100895.10;126453;1100;101925;-82
2023/11/10 08:14:35;;;;;;;6.20;3.53;;;;;;;12.32;70.35;100891.98;124953;1101;102479;-82
2023/11/10 08:17:14;;;;;;;5.73;3.57;;;;;;;12.47;71.16;100880.22;124857;1099;102444;-82
2023/11/10 08:19:51;;;;;;;5.37;3.27;;;;;;;12.57;69.83;100887.56;124785;1102;104274;-80
2023/11/10 08:22:30;;;;;;;7.77;3.77;;;;;;;12.70;70.02;100888.86;125119;1099;103356;-81
2023/11/10 08:25:11;;;;;;;6.93;3.37;;;;;;;12.81;69.43;100887.50;124952;1102;104158;-79
2023/11/10 08:27:54;;;;;;;5.73;3.50;;;;;;;12.91;69.54;100884.30;124860;1102;102632;-78
2023/11/10 08:30:47;;;;;;;6.17;3.50;;;;;;;13.03;69.22;100877.66;124784;1102;104249;-79
2023/11/10 08:33:18;;;;;;;;;;;;;;;13.19;69.48;100877.28;115997;1102;10001519;-80
2023/11/10 08:35:59;;;;;;;5.27;3.07;;;;;;;13.29;67.77;100871.45;124616;1102;104260;-79
2023/11/10 08:38:44;;;;;;;7.10;3.40;;;;;;;13.39;67.46;100864.75;125447;1101;104242;-82
2023/11/10 08:41:29;;;;;;;8.57;3.20;;;;;;;13.50;67.29;100861.55;125785;1102;102670;-80
2023/11/10 08:44:29;;;;;;;4.00;2.60;;;;;;;13.64;67.55;100857.56;125374;1099;102368;-82
2023/11/10 08:47:10;;;;;;;3.80;2.60;;;;;;;13.76;65.92;100854.36;124799;1102;104182;-81
2023/11/10 08:49:50;;;;;;;5.93;2.70;;;;;;;13.79;64.99;100863.28;124770;1102;104168;-77
2023/11/10 08:52:29;;;;;;;4.27;2.43;;;;;;;13.86;63.68;100859.06;124692;1102;104641;-82
2023/11/10 08:55:03;;;;;;;6.10;2.80;;;;;;;13.92;64.55;100850.44;124798;1102;103362;-82
2023/11/10 08:57:38;;;;;;;4.87;2.30;;;;;;;13.94;62.01;100833.78;126217;1099;108801;-81
2023/11/10 09:00:18;;;;;;;7.43;2.60;;;;;;;14.03;62.94;100836.66;126166;1102;102750;-79
2023/11/10 09:03:11;;;;;;;4.90;2.70;;;;;;;14.14;63.99;100829.03;126115;1102;102597;-78
2023/11/10 09:05:46;;;;;;;3.33;2.27;;;;;;;14.24;62.87;100837.20;125686;1102;104403;-80
2023/11/10 09:08:26;;;;;;;4.93;2.20;;;;;;;14.30;63.26;100826.80;125625;1102;102930;-77
2023/11/10 09:11:06;;;;;;;5.17;2.23;;;;;;;14.39;63.59;100825.28;124742;1102;104440;-78
2023/11/10 09:13:45;;;;;;;7.80;2.50;;;;;;;14.43;62.77;100826.27;124691;1102;104223;-78
2023/11/10 09:16:28;;;;;;;8.27;2.63;;;;;;;14.49;62.38;100820.23;124752;1099;104354;-78
2023/11/10 09:19:28;;;;;;;3.73;2.30;;;;;;;14.55;61.83;100823.02;124945;1102;104194;-83
2023/11/10 09:22:04;;;;;;;4.90;2.67;;;;;;;14.58;61.75;100823.09;126196;1099;103503;-79
2023/11/10 09:24:41;;;;;;;4.60;2.70;;;;;;;14.55;60.98;100825.66;126538;1099;104219;-78
2023/11/10 09:27:15;;;;;;;5.03;2.63;;;;;;;14.51;60.87;100823.83;125976;1102;102338;-75
2023/11/10 09:29:51;;;;;;;5.42;2.35;;;;;;;14.56;61.42;100804.58;125877;1102;101926;-77
2023/11/10 09:32:26;;;;;;;3.77;2.20;;;;;;;14.67;60.32;100810.16;125083;1102;103389;-76
2023/11/10 09:35:01;;;;;;;4.67;2.60;;;;;;;14.76;59.33;100798.02;124322;1102;104168;-79
2023/11/10 09:37:39;;;;;;;4.07;2.63;;;;;;;14.87;59.94;100801.81;124556;1102;103680;-79
2023/11/10 09:40:20;;;;;;;5.97;2.67;;;;;;;14.92;59.57;100794.88;124598;1102;104252;-82
2023/11/10 09:43:08;;;;;;;5.07;2.20;;;;;;;15.08;60.31;100797.02;124759;1099;104165;-79
2023/11/10 09:45:50;;;;;;;5.10;2.43;;;;;;;15.20;60.14;100787.56;124553;1099;104242;-77
2023/11/10 09:48:25;;;;;;;5.63;2.07;;;;;;;15.12;58.89;100782.11;126096;1100;103977;-77
2023/11/10 09:51:01;;;;;;;5.20;2.13;;;;;;;15.09;58.83;100768.83;124572;1102;104249;-77
2023/11/10 09:53:38;;;;;;;6.17;2.50;;;;;;;15.06;57.95;100777.57;124758;1100;104197;-78
2023/11/10 09:56:13;;;;;;;4.77;2.30;;;;;;;15.12;58.55;100774.18;124722;1100;104182;-79
2023/11/10 09:58:54;;;;;;;3.93;2.13;;;;;;;15.12;56.84;100760.97;124843;1099;102116;-77
2023/11/10 10:01:28;;;;;;;5.90;2.70;;;;;;;15.03;57.24;100760.77;124712;1099;102606;-78
2023/11/10 10:04:04;;;;;;;3.10;1.97;;;;;;;14.97;56.67;100743.02;124714;1101;103076;-77
2023/11/10 10:06:39;;;;;;;5.17;2.10;;;;;;;14.89;57.08;100761.34;124511;1102;104156;-78
2023/11/10 10:09:21;;;;;;;4.70;2.10;;;;;;;14.87;57.02;100743.70;124690;1102;110861;-77
2023/11/10 10:11:56;;;;;;;5.53;2.47;;;;;;;14.85;56.59;100735.73;126223;1101;101872;-79
2023/11/10 10:14:30;;;;;;;;;;;;;;;14.84;57.21;100733.06;126238;1101;102596;-80
2023/11/10 10:17:06;;;;;;;3.47;2.15;;;;;;;14.78;57.20;100730.28;126079;1102;102035;-80
2023/11/10 10:19:42;;;;;;;5.67;2.60;;;;;;;14.77;57.44;100723.20;126104;1099;102402;-80
2023/11/10 10:22:28;;;;;;;4.37;2.20;;;;;;;14.71;57.16;100718.70;126162;1099;102689;-79
2023/11/10 10:25:02;;;;;;;3.63;2.37;;;;;;;14.74;56.82;100719.64;126337;1098;101885;-81
2023/11/10 10:27:38;;;;;;;3.90;2.33;;;;;;;14.74;57.54;100714.36;126072;1102;103158;-80
2023/11/10 10:30:14;;;;;;;4.77;2.50;;;;;;;14.80;56.89;100696.86;126221;1100;101772;-80
2023/11/10 10:33:06;;;;;;;4.90;2.30;;;;;;;14.83;57.24;100710.12;125053;1102;102018;-81
2023/11/10 10:35:47;;;;;;;3.75;2.50;;;;;;;14.86;57.28;100715.48;124923;1101;104230;-80
2023/11/10 10:38:32;;;;;;;3.90;2.07;;;;;;;14.86;56.69;100705.80;125185;1102;102949;-79
2023/11/10 10:41:07;;;;;;;5.10;2.50;;;;;;;14.81;56.26;100701.29;125110;1102;104222;-81
2023/11/10 10:44:03;;;;;;;7.20;2.40;;;;;;;14.80;56.72;100697.73;126238;1100;101529;-79
2023/11/10 10:46:42;;;;;;;6.00;2.87;;;;;;;14.77;55.59;100683.58;126189;1099;101812;-80
2023/11/10 10:49:21;;;;;;;3.03;2.60;;;;;;;14.76;56.23;100694.99;126207;1099;101842;-81
2023/11/10 10:52:02;;;;;;;5.07;2.73;;;;;;;14.76;56.17;100697.63;126174;1102;101584;-80
2023/11/10 10:54:38;;;;;;;5.37;2.70;;;;;;;14.82;56.69;100690.75;126216;1101;102111;-80
2023/11/10 10:57:17;;;;;;;4.47;2.80;;;;;;;14.85;55.84;100679.34;126076;1102;102761;-82
2023/11/10 10:59:54;;;;;;;5.07;2.60;;;;;;;14.88;56.11;100675.03;126024;1099;102216;-79
2023/11/10 11:02:32;;;;;;;7.07;2.70;;;;;;;14.91;56.67;100667.17;125989;1102;101825;-78
2023/11/10 11:05:17;;;;;;;5.13;2.80;;;;;;;14.95;56.13;100664.59;126054;1102;102772;-79
2023/11/10 11:08:08;;;;;;;4.50;2.40;;;;;;;15.01;55.77;100662.95;126078;1102;103253;-81
2023/11/10 11:11:00;;;;;;;5.73;2.60;;;;;;;15.00;55.46;100665.57;126035;1099;102045;-82
2023/11/10 11:13:52;;;;;;;6.73;2.80;;;;;;;14.96;55.72;100658.43;126214;1099;102153;-79
2023/11/10 11:16:49;;;;;;;5.83;3.43;;;;;;;14.99;56.79;100661.14;125934;1099;102632;-78
2023/11/10 11:19:31;;;;;;;4.10;2.43;;;;;;;15.02;56.26;100658.55;126085;1102;102658;-82
2023/11/10 11:22:07;;;;;;;7.22;2.52;;;;;;;15.00;56.21;100655.88;126075;1101;117852;-79
2023/11/10 11:24:41;;;;;;;5.97;2.87;;;;;;;15.00;55.74;100649.72;126137;1102;102935;-80
2023/11/10 11:27:24;;;;;;;4.57;2.60;;;;;;;14.99;55.97;100646.20;126086;1102;102708;-79
2023/11/10 11:29:59;;;;;;;4.15;2.40;;;;;;;14.95;56.50;100644.34;126096;1102;102937;-79
2023/11/10 11:32:39;;;;;;;4.27;2.73;;;;;;;14.95;56.20;100640.81;126326;1099;101688;-79
2023/11/10 11:35:16;;;;;;;4.20;2.60;;;;;;;14.91;56.23;100642.48;125073;1099;104308;-80
2023/11/10 11:37:48;;;;;;;3.20;2.37;;;;;;;14.86;55.73;100636.23;124534;1099;103512;-77
2023/11/10 11:40:39;;;;;;;6.47;2.70;;;;;;;14.85;56.46;100623.86;124574;1102;104271;-75
2023/11/10 11:43:23;;;;;;;5.33;2.40;;;;;;;14.87;55.42;100638.90;124626;1102;102527;-80